Meridian Regional Airport

Airport
ICAO code: 
KMEI
Summary
ICAO Region: 
NAM
Territory: 
Location: 
Meridian, Mississippi,
Coordinates: 
Aerial View: 
32° 19' 48.414" N, 88° 45' 6.498" W
Metar
Observation
KMEI 020858Z AUTO 19006KT 10SM CLR 11/09 A3013 RMK AO2 SLP199 I1000 I3/// T01110094 58008
Station
Meridian, Key Field
Date/Time
2021-12-02 08:58:00
Wind direction
190°
Wind speed
06 kts
Lowest cloud amount
n/a
Temperature
11.1°C
Dew point
9.4°C
Humidity
89%
Weather condition
n/a

Description

Meridian Regional Airport is a public, joint use civil-military (ANG) airport located 6 km southwest of Meridian, a city in Lauderdale County, Mississippi.

Climatology

Humid “subtropical” climate (Köppen climate classification Cfa) - characterized by hot, humid summers and cool winters. Significant amounts of precipitation occur in all seasons in most areas. Winter rainfall (and sometimes snowfall) is associated with large storms that the westerlies steer from west to east. Most summer rainfall occurs during thunderstorms and occasional tropical storms (hurricanes).

Runways

Designator Length Width Surface Rops
4/22 1402 46 ASP Yes/Yes
1/19 3049 46 ASP Yes/Yes
Airport map: 
Aerial View: 

SKYbrary Partners:

Safety knowledge contributed by: